createdAt,value
2022-11-29T00:01:25.071Z,56.72
2022-11-29T00:03:52.363Z,60.38
2022-11-29T00:06:24.383Z,76.57
2022-11-29T00:08:50.879Z,63.92
2022-11-29T00:11:44.599Z,67.80
2022-11-29T00:14:13.318Z,57.97
2022-11-29T00:16:40.999Z,70.35
2022-11-29T00:19:12.317Z,67.07
2022-11-29T00:21:38.921Z,65.60
2022-11-29T00:24:05.704Z,64.93
2022-11-29T00:26:32.224Z,70.20
2022-11-29T00:28:58.749Z,63.63
2022-11-29T00:31:30.301Z,66.22
2022-11-29T00:33:57.859Z,62.15
2022-11-29T00:36:24.721Z,59.13
2022-11-29T00:38:51.477Z,68.18
2022-11-29T00:41:18.069Z,61.00
2022-11-29T00:43:44.653Z,67.70
2022-11-29T00:46:11.458Z,58.95
2022-11-29T00:48:37.961Z,61.10
2022-11-29T00:51:05.586Z,59.55
2022-11-29T00:53:33.293Z,59.10
2022-11-29T00:55:59.817Z,60.88
2022-11-29T00:58:26.347Z,55.95
2022-11-29T01:00:53.468Z,58.42
2022-11-29T01:03:20.010Z,75.45
2022-11-29T01:05:46.847Z,65.75
2022-11-29T01:08:13.952Z,67.25
2022-11-29T01:10:41.262Z,84.47
2022-11-29T01:13:08.091Z,67.28
2022-11-29T01:15:34.799Z,68.13
2022-11-29T01:18:01.335Z,69.32
2022-11-29T01:20:27.984Z,68.35
2022-11-29T01:22:54.545Z,63.88
2022-11-29T01:25:21.250Z,57.90
2022-11-29T01:27:47.842Z,71.70
2022-11-29T01:30:15.049Z,69.07
2022-11-29T01:32:41.822Z,62.72
2022-11-29T01:35:08.686Z,60.38
2022-11-29T01:37:35.131Z,69.32
2022-11-29T01:40:01.623Z,63.40
2022-11-29T01:42:28.105Z,68.47
2022-11-29T01:45:10.127Z,64.55
2022-11-29T01:47:38.788Z,57.80
2022-11-29T01:50:05.849Z,68.80
2022-11-29T01:52:32.920Z,59.63
2022-11-29T01:55:02.669Z,65.03
2022-11-29T01:57:29.628Z,67.28
2022-11-29T01:59:58.739Z,64.15
2022-11-29T02:02:31.238Z,70.13
2022-11-29T02:04:59.196Z,61.10
2022-11-29T02:07:25.944Z,72.72
2022-11-29T02:09:52.720Z,69.22
2022-11-29T02:12:25.295Z,74.57
2022-11-29T02:15:10.609Z,82.80
2022-11-29T02:17:52.194Z,73.72
2022-11-29T02:20:51.391Z,75.45
2022-11-29T02:23:36.081Z,72.32
2022-11-29T02:26:02.517Z,89.30
2022-11-29T02:28:47.706Z,91.65
2022-11-29T02:31:51.949Z,96.00
2022-11-29T02:34:36.666Z,80.38
2022-11-29T02:37:51.309Z,89.13
2022-11-29T02:40:33.072Z,83.75
2022-11-29T02:43:29.839Z,80.85
2022-11-29T02:46:12.848Z,73.03
2022-11-29T02:49:14.744Z,105.00
2022-11-29T02:51:58.274Z,111.40
2022-11-29T02:54:30.242Z,87.38
2022-11-29T02:57:18.039Z,92.10
2022-11-29T03:00:00.152Z,84.70
2022-11-29T03:02:36.732Z,102.30
2022-11-29T03:05:09.939Z,86.78
2022-11-29T03:07:57.620Z,82.72
2022-11-29T03:10:43.624Z,79.60
2022-11-29T03:13:22.724Z,87.28
2022-11-29T03:16:28.059Z,74.25
2022-11-29T03:19:00.120Z,78.50
2022-11-29T03:21:39.613Z,79.75
2022-11-29T03:24:11.902Z,68.45
2022-11-29T03:26:42.629Z,75.43
2022-11-29T03:29:21.561Z,69.00
2022-11-29T03:31:54.296Z,63.50
2022-11-29T03:34:37.398Z,75.60
2022-11-29T03:37:12.809Z,74.65
2022-11-29T03:39:52.256Z,63.88
2022-11-29T03:42:26.681Z,64.65
2022-11-29T03:44:57.576Z,64.45
2022-11-29T03:47:29.231Z,74.90
2022-11-29T03:50:14.078Z,73.55
2022-11-29T03:52:50.157Z,83.40
2022-11-29T03:55:49.316Z,68.78
2022-11-29T03:58:38.428Z,73.70
2022-11-29T04:01:34.075Z,66.45
2022-11-29T04:04:37.831Z,70.30
2022-11-29T04:07:13.564Z,76.38
2022-11-29T04:10:04.546Z,75.03
2022-11-29T04:13:06.208Z,78.68
2022-11-29T04:15:51.419Z,80.70
2022-11-29T04:18:50.201Z,81.20
2022-11-29T04:21:47.703Z,78.78
2022-11-29T04:24:45.460Z,97.03
2022-11-29T04:27:33.990Z,88.35
2022-11-29T04:30:08.184Z,85.65
2022-11-29T04:32:52.879Z,95.80
2022-11-29T04:35:48.414Z,79.97
2022-11-29T04:38:47.586Z,75.13
2022-11-29T04:41:24.019Z,85.30
2022-11-29T04:44:03.673Z,80.47
2022-11-29T04:46:51.331Z,76.82
2022-11-29T04:49:25.876Z,72.53
2022-11-29T04:52:16.127Z,77.32
2022-11-29T04:55:04.405Z,67.50
2022-11-29T04:57:37.444Z,70.18
2022-11-29T05:00:06.398Z,72.18
2022-11-29T05:02:51.298Z,66.15
2022-11-29T05:05:24.564Z,89.28
2022-11-29T05:08:19.405Z,86.53
2022-11-29T05:11:05.240Z,74.97
2022-11-29T05:13:40.900Z,88.10
2022-11-29T05:16:13.761Z,75.15
2022-11-29T05:19:11.935Z,82.25
2022-11-29T05:22:00.279Z,80.30
2022-11-29T05:24:33.286Z,113.47
2022-11-29T05:27:16.682Z,188.13
2022-11-29T05:29:55.448Z,119.70
2022-11-29T05:32:21.933Z,103.22
2022-11-29T05:34:57.382Z,110.43
2022-11-29T05:37:49.564Z,115.00
2022-11-29T05:40:25.056Z,180.38
2022-11-29T05:43:18.539Z,157.68
2022-11-29T05:45:55.160Z,223.23
2022-11-29T05:48:26.743Z,130.88
2022-11-29T05:51:05.351Z,120.55
2022-11-29T05:54:07.967Z,275.02
2022-11-29T05:57:01.323Z,262.10
2022-11-29T05:59:29.092Z,97.38
2022-11-29T06:02:17.532Z,92.82
2022-11-29T06:04:46.935Z,77.78
2022-11-29T06:07:22.345Z,171.80
2022-11-29T06:12:21.396Z,173.15
2022-11-29T06:15:15.268Z,75.15
2022-11-29T06:18:04.131Z,96.82
2022-11-29T06:20:43.204Z,132.57
2022-11-29T06:23:51.120Z,113.45
2022-11-29T06:26:29.147Z,101.30
2022-11-29T06:29:19.182Z,130.50
2022-11-29T06:31:50.131Z,71.78
2022-11-29T06:34:33.970Z,112.45
2022-11-29T06:37:23.199Z,99.40
2022-11-29T06:39:50.110Z,80.72
2022-11-29T06:42:16.814Z,70.03
2022-11-29T06:44:44.034Z,86.90
2022-11-29T06:47:17.124Z,89.82
2022-11-29T06:49:46.361Z,114.50
2022-11-29T06:52:39.260Z,174.77
2022-11-29T06:55:15.416Z,83.85
2022-11-29T06:58:09.826Z,131.98
2022-11-29T07:00:58.795Z,179.25
2022-11-29T07:03:34.803Z,115.60
2022-11-29T07:06:08.533Z,350.48
2022-11-29T07:08:35.381Z,67.60
2022-11-29T07:11:02.039Z,106.15
2022-11-29T07:13:28.867Z,70.07
2022-11-29T07:16:14.278Z,65.93
2022-11-29T07:18:51.076Z,73.72
2022-11-29T07:21:29.807Z,92.78
2022-11-29T07:24:27.326Z,97.00
2022-11-29T07:27:18.962Z,111.43
2022-11-29T07:30:05.077Z,84.22
2022-11-29T07:32:51.461Z,101.22
2022-11-29T07:35:50.925Z,300.77
2022-11-29T07:38:24.438Z,117.72
2022-11-29T07:41:12.170Z,81.43
2022-11-29T07:43:46.710Z,136.57
2022-11-29T07:46:13.360Z,84.00
2022-11-29T07:48:40.001Z,98.03
2022-11-29T07:51:06.553Z,117.75
2022-11-29T07:53:37.159Z,206.88
2022-11-29T07:56:03.726Z,146.05
2022-11-29T07:58:30.229Z,548.25
2022-11-29T08:00:56.792Z,102.80
2022-11-29T08:03:23.442Z,187.13
2022-11-29T08:05:50.018Z,144.77
2022-11-29T08:08:16.499Z,193.75
2022-11-29T08:10:43.406Z,133.75
2022-11-29T08:13:10.125Z,181.90
2022-11-29T08:15:36.955Z,281.98
2022-11-29T08:18:03.759Z,204.02
2022-11-29T08:20:30.337Z,554.35
2022-11-29T08:22:58.610Z,328.95
2022-11-29T08:25:26.261Z,398.73
2022-11-29T08:27:53.017Z,458.83
2022-11-29T08:30:22.307Z,112.93
2022-11-29T08:32:51.913Z,413.65
2022-11-29T08:35:23.113Z,405.67
2022-11-29T08:37:50.505Z,224.30
2022-11-29T08:40:17.314Z,155.48
2022-11-29T08:42:43.796Z,543.38
2022-11-29T08:45:11.069Z,193.32
2022-11-29T08:47:38.902Z,228.38
2022-11-29T08:50:12.442Z,532.22
2022-11-29T08:52:59.494Z,284.85
2022-11-29T08:55:28.250Z,458.90
2022-11-29T08:58:01.273Z,338.80
2022-11-29T09:00:27.785Z,481.77
2022-11-29T09:02:54.293Z,153.90
2022-11-29T09:05:20.810Z,352.05
2022-11-29T09:07:47.444Z,466.23
2022-11-29T09:10:14.112Z,687.13
2022-11-29T09:12:40.804Z,569.30
2022-11-29T09:15:09.675Z,244.40
2022-11-29T09:17:36.449Z,429.92
2022-11-29T09:20:04.266Z,328.98
2022-11-29T09:22:31.306Z,497.63
2022-11-29T09:24:57.817Z,347.35
2022-11-29T09:27:24.299Z,291.02
2022-11-29T09:29:50.860Z,236.75
2022-11-29T09:32:17.388Z,165.50
2022-11-29T09:34:44.090Z,213.02
2022-11-29T09:37:10.923Z,195.23
2022-11-29T09:39:38.185Z,163.45
2022-11-29T09:42:42.884Z,173.88
2022-11-29T09:45:11.668Z,151.93
2022-11-29T09:48:23.128Z,277.25
2022-11-29T09:50:54.318Z,372.88
2022-11-29T09:53:23.937Z,557.88
2022-11-29T09:56:23.412Z,289.63
2022-11-29T09:59:01.512Z,503.67
2022-11-29T10:01:31.468Z,164.75
2022-11-29T10:04:04.281Z,309.70
2022-11-29T10:06:38.969Z,262.08
2022-11-29T10:09:16.703Z,516.38
2022-11-29T10:12:14.234Z,318.45
2022-11-29T10:14:46.057Z,163.63
2022-11-29T10:17:16.680Z,157.80
2022-11-29T10:19:47.575Z,323.25
2022-11-29T10:22:20.017Z,688.75
2022-11-29T10:24:50.267Z,571.15
2022-11-29T10:27:23.801Z,357.98
2022-11-29T10:29:53.374Z,104.53
2022-11-29T10:32:21.425Z,768.30
2022-11-29T10:34:49.061Z,798.85
2022-11-29T10:37:20.795Z,138.30
2022-11-29T10:39:51.265Z,409.95
2022-11-29T10:42:47.179Z,102.50
2022-11-29T10:45:35.583Z,140.60
2022-11-29T10:48:05.035Z,239.38
2022-11-29T10:50:34.873Z,154.65
2022-11-29T10:53:07.287Z,177.85
2022-11-29T10:55:43.632Z,167.88
2022-11-29T10:58:27.944Z,276.25
2022-11-29T11:01:06.816Z,134.70
2022-11-29T11:03:40.145Z,185.30
2022-11-29T11:06:19.082Z,322.52
2022-11-29T11:08:52.165Z,109.95
2022-11-29T11:11:29.718Z,216.93
2022-11-29T11:14:06.072Z,108.43
2022-11-29T11:16:37.366Z,76.95
2022-11-29T11:19:30.042Z,96.80
2022-11-29T11:22:03.550Z,67.28
2022-11-29T11:24:32.342Z,106.82
2022-11-29T11:26:59.419Z,81.30
2022-11-29T11:29:36.406Z,104.85
2022-11-29T11:32:03.684Z,90.38
2022-11-29T11:34:30.390Z,101.10
2022-11-29T11:37:15.036Z,98.85
2022-11-29T11:39:43.205Z,130.93
2022-11-29T11:42:33.844Z,132.90
2022-11-29T11:45:01.176Z,107.68
2022-11-29T11:47:29.625Z,57.63
2022-11-29T11:50:07.909Z,52.95
2022-11-29T11:52:40.209Z,73.75
2022-11-29T11:55:32.186Z,87.45
2022-11-29T11:58:11.955Z,115.72
2022-11-29T12:01:05.506Z,98.78
2022-11-29T12:04:18.053Z,74.72
2022-11-29T12:06:58.922Z,86.93
2022-11-29T12:09:37.672Z,77.30
2022-11-29T12:12:19.385Z,79.63
2022-11-29T12:15:27.848Z,90.10
2022-11-29T12:18:09.776Z,73.25
2022-11-29T12:20:58.599Z,82.10
2022-11-29T12:23:39.125Z,72.95
2022-11-29T12:26:10.668Z,72.45
2022-11-29T12:28:40.247Z,94.93
2022-11-29T12:31:35.204Z,102.70
2022-11-29T12:34:22.553Z,108.70
2022-11-29T12:36:52.200Z,104.13
2022-11-29T12:39:46.612Z,114.13
2022-11-29T12:42:19.357Z,114.90
2022-11-29T12:44:54.756Z,114.38
2022-11-29T12:47:36.758Z,118.18
2022-11-29T12:50:08.133Z,155.60
2022-11-29T12:52:48.133Z,128.65
2022-11-29T12:55:29.301Z,142.95
2022-11-29T12:58:08.554Z,128.95
2022-11-29T13:00:56.516Z,125.32
2022-11-29T13:03:34.216Z,121.78
2022-11-29T13:06:07.837Z,126.45
2022-11-29T13:08:49.771Z,154.75
2022-11-29T13:11:59.212Z,166.02
2022-11-29T13:14:43.360Z,154.05
2022-11-29T13:17:42.396Z,146.15
2022-11-29T13:20:23.560Z,142.43
2022-11-29T13:23:05.517Z,176.82
2022-11-29T13:25:41.336Z,155.63
2022-11-29T13:28:17.692Z,128.38
2022-11-29T13:30:44.555Z,120.90
2022-11-29T13:33:20.194Z,112.72
2022-11-29T13:36:15.977Z,90.18
2022-11-29T13:38:55.236Z,83.03
2022-11-29T13:41:33.836Z,78.75
2022-11-29T13:44:17.232Z,74.30
2022-11-29T13:46:50.031Z,59.58
2022-11-29T13:49:22.430Z,62.40
2022-11-29T13:51:49.681Z,55.92
2022-11-29T13:54:31.315Z,46.88
2022-11-29T13:57:03.763Z,41.70
2022-11-29T13:59:32.684Z,46.53
2022-11-29T14:01:59.373Z,44.88
2022-11-29T14:04:36.963Z,43.50
2022-11-29T14:07:04.780Z,51.55
2022-11-29T14:10:04.690Z,52.40
2022-11-29T14:12:38.381Z,54.67
2022-11-29T14:15:11.111Z,52.88
2022-11-29T14:17:52.972Z,54.38
2022-11-29T14:20:22.496Z,54.72
2022-11-29T14:23:04.294Z,59.65
2022-11-29T14:26:01.352Z,52.95
2022-11-29T14:28:33.557Z,58.22
2022-11-29T14:31:04.821Z,54.00
2022-11-29T14:33:46.441Z,59.28
2022-11-29T14:36:18.783Z,55.55
2022-11-29T14:38:51.401Z,59.45
2022-11-29T14:41:31.084Z,64.00
2022-11-29T14:44:17.073Z,55.85
2022-11-29T14:46:44.591Z,46.90
2022-11-29T14:49:21.986Z,39.42
2022-11-29T14:52:12.913Z,47.55
2022-11-29T14:54:59.448Z,32.75
2022-11-29T14:57:58.442Z,37.08
2022-11-29T15:00:43.811Z,41.47
2022-11-29T15:03:15.861Z,28.88
2022-11-29T15:05:48.990Z,34.50
2022-11-29T15:08:26.963Z,39.80
2022-11-29T15:11:01.405Z,41.58
2022-11-29T15:13:31.330Z,31.27
2022-11-29T15:16:08.869Z,37.80
2022-11-29T15:19:03.969Z,35.15
2022-11-29T15:21:45.713Z,42.78
2022-11-29T15:24:14.732Z,39.50
2022-11-29T15:27:01.381Z,40.15
2022-11-29T15:29:29.345Z,42.97
2022-11-29T15:31:58.033Z,41.38
2022-11-29T15:34:40.221Z,48.28
2022-11-29T15:37:06.891Z,47.22
2022-11-29T15:39:36.071Z,49.95
2022-11-29T15:42:13.484Z,43.70
2022-11-29T15:44:48.928Z,44.38
2022-11-29T15:47:26.364Z,51.17
2022-11-29T15:49:54.265Z,52.53
2022-11-29T15:52:26.814Z,51.63
2022-11-29T15:55:01.161Z,51.13
2022-11-29T15:57:32.530Z,51.17
2022-11-29T16:00:01.791Z,51.70
2022-11-29T16:02:30.953Z,55.10
2022-11-29T16:05:00.706Z,56.33
2022-11-29T16:07:32.215Z,52.03
2022-11-29T16:10:14.183Z,45.88
2022-11-29T16:12:54.318Z,53.28
2022-11-29T16:15:39.398Z,46.65
2022-11-29T16:18:12.321Z,46.35
2022-11-29T16:20:39.348Z,46.20
2022-11-29T16:23:11.565Z,51.75
2022-11-29T16:25:59.364Z,57.45
2022-11-29T16:28:33.249Z,56.45
2022-11-29T16:31:00.153Z,108.10
2022-11-29T16:33:27.161Z,80.57
2022-11-29T16:36:12.081Z,61.42
2022-11-29T16:38:44.780Z,55.78
2022-11-29T16:41:24.904Z,57.28
2022-11-29T16:43:56.163Z,55.97
2022-11-29T16:46:22.675Z,53.22
2022-11-29T16:48:49.985Z,54.03
2022-11-29T16:51:18.264Z,50.40
2022-11-29T16:53:51.113Z,50.80
2022-11-29T16:56:20.567Z,52.15
2022-11-29T16:59:17.108Z,42.03
2022-11-29T17:01:47.069Z,39.90
2022-11-29T17:04:13.629Z,45.38
2022-11-29T17:06:50.714Z,43.65
2022-11-29T17:09:26.543Z,47.38
2022-11-29T17:11:54.040Z,49.28
2022-11-29T17:14:20.551Z,50.97
2022-11-29T17:16:50.387Z,43.50
2022-11-29T17:19:18.601Z,52.05
2022-11-29T17:21:45.409Z,58.30
2022-11-29T17:24:14.972Z,47.17
2022-11-29T17:26:42.740Z,53.00
2022-11-29T17:29:13.819Z,49.17
2022-11-29T17:31:41.531Z,52.67
2022-11-29T17:34:08.403Z,59.60
2022-11-29T17:36:35.199Z,50.33
2022-11-29T17:39:02.578Z,67.40
2022-11-29T17:41:29.525Z,625.17
2022-11-29T17:43:57.107Z,560.97
2022-11-29T17:46:26.423Z,322.02
2022-11-29T17:48:53.786Z,181.15
2022-11-29T17:51:50.561Z,111.75
2022-11-29T17:54:09.894Z,91.60
2022-11-29T17:56:36.584Z,80.35
2022-11-29T17:59:04.120Z,70.90
2022-11-29T18:01:36.094Z,68.55
2022-11-29T18:04:05.142Z,71.88
2022-11-29T18:06:36.192Z,77.85
2022-11-29T18:09:04.780Z,77.30
2022-11-29T18:11:41.662Z,73.75
2022-11-29T18:14:12.613Z,87.07
2022-11-29T18:16:39.638Z,75.13
2022-11-29T18:19:08.662Z,108.40
2022-11-29T18:21:35.689Z,176.30
2022-11-29T18:24:03.762Z,135.45
2022-11-29T18:26:31.410Z,109.75
2022-11-29T18:28:58.647Z,86.88
2022-11-29T18:31:28.302Z,98.07
2022-11-29T18:34:00.072Z,60.50
2022-11-29T18:36:29.273Z,232.85
2022-11-29T18:39:00.816Z,87.78
2022-11-29T18:41:29.166Z,129.02
2022-11-29T18:44:01.564Z,111.72
2022-11-29T18:46:36.776Z,74.88
2022-11-29T18:51:31.365Z,60.78
2022-11-29T18:53:58.516Z,164.70
2022-11-29T18:56:27.484Z,108.07
2022-11-29T18:58:58.338Z,174.75
2022-11-29T19:01:27.529Z,111.55
2022-11-29T19:03:55.689Z,66.82
2022-11-29T19:06:38.640Z,74.88
2022-11-29T19:09:07.138Z,130.82
2022-11-29T19:11:34.388Z,102.55
2022-11-29T19:14:03.896Z,106.38
2022-11-29T19:16:33.265Z,142.98
2022-11-29T19:19:01.025Z,109.05
2022-11-29T19:21:29.495Z,85.45
2022-11-29T19:23:57.868Z,72.28
2022-11-29T19:26:26.659Z,67.70
2022-11-29T19:28:53.656Z,74.93
2022-11-29T19:31:23.905Z,84.75
2022-11-29T19:33:52.692Z,78.30
2022-11-29T19:36:30.253Z,91.72
2022-11-29T19:38:57.824Z,81.72
2022-11-29T19:41:25.518Z,93.05
2022-11-29T19:43:54.071Z,84.50
2022-11-29T19:46:22.985Z,99.78
2022-11-29T19:48:49.622Z,80.57
2022-11-29T19:51:18.938Z,87.22
2022-11-29T19:53:46.366Z,86.20
2022-11-29T19:56:16.910Z,98.15
2022-11-29T19:58:44.234Z,87.03
2022-11-29T20:01:13.232Z,102.65
2022-11-29T20:03:40.537Z,120.55
2022-11-29T20:06:07.844Z,85.57
2022-11-29T20:08:34.929Z,109.35
2022-11-29T20:11:07.915Z,129.27
2022-11-29T20:13:34.640Z,119.55
2022-11-29T20:16:03.340Z,131.63
2022-11-29T20:18:33.666Z,111.68
2022-11-29T20:21:07.819Z,102.05
2022-11-29T20:23:34.374Z,129.45
2022-11-29T20:26:01.308Z,107.13
2022-11-29T20:28:28.223Z,100.30
2022-11-29T20:30:55.170Z,78.22
2022-11-29T20:33:23.832Z,86.35
2022-11-29T20:35:56.377Z,83.32
2022-11-29T20:38:52.160Z,76.32
2022-11-29T20:41:40.300Z,72.38
2022-11-29T20:44:09.952Z,69.20
2022-11-29T20:46:36.756Z,77.88
2022-11-29T20:49:06.714Z,59.63
2022-11-29T20:51:41.148Z,69.38
2022-11-29T20:54:10.456Z,137.02
2022-11-29T20:56:36.982Z,164.70
2022-11-29T20:59:03.467Z,119.35
2022-11-29T21:01:30.147Z,76.78
2022-11-29T21:03:56.736Z,64.18
2022-11-29T21:06:23.251Z,75.05
2022-11-29T21:08:51.120Z,80.15
2022-11-29T21:11:17.980Z,71.97
2022-11-29T21:13:45.087Z,63.85
2022-11-29T21:16:12.914Z,70.00
2022-11-29T21:18:39.844Z,67.22
2022-11-29T21:21:20.176Z,77.38
2022-11-29T21:24:11.867Z,64.43
2022-11-29T21:26:42.536Z,75.15
2022-11-29T21:29:19.452Z,81.47
2022-11-29T21:31:47.312Z,68.53
2022-11-29T21:34:13.972Z,72.32
2022-11-29T21:36:40.930Z,57.60
2022-11-29T21:39:09.535Z,70.82
2022-11-29T21:41:36.465Z,59.25
2022-11-29T21:44:07.771Z,65.95
2022-11-29T21:46:35.214Z,58.22
2022-11-29T21:49:01.813Z,74.47
2022-11-29T21:51:28.304Z,71.70
2022-11-29T21:53:54.912Z,59.30
2022-11-29T21:56:21.469Z,59.53
2022-11-29T21:58:47.978Z,63.65
2022-11-29T22:01:19.638Z,56.85
2022-11-29T22:03:46.217Z,57.72
2022-11-29T22:06:16.405Z,60.00
2022-11-29T22:08:42.953Z,60.97
2022-11-29T22:11:11.746Z,72.40
2022-11-29T22:13:58.142Z,64.78
2022-11-29T22:16:25.049Z,69.50
2022-11-29T22:18:51.698Z,66.82
2022-11-29T22:21:18.221Z,78.80
2022-11-29T22:23:44.720Z,72.07
2022-11-29T22:26:12.028Z,61.10
2022-11-29T22:28:38.884Z,62.00
2022-11-29T22:31:07.244Z,62.90
2022-11-29T22:33:34.392Z,56.00
2022-11-29T22:36:07.046Z,50.88
2022-11-29T22:38:33.828Z,52.97
2022-11-29T22:41:05.292Z,57.20
2022-11-29T22:43:32.863Z,47.28
2022-11-29T22:46:12.886Z,50.78
2022-11-29T22:48:40.377Z,48.58
2022-11-29T22:51:09.102Z,53.55
2022-11-29T22:53:36.599Z,49.00
2022-11-29T22:56:05.086Z,49.38
2022-11-29T22:58:31.974Z,44.22
2022-11-29T23:01:19.068Z,48.00
2022-11-29T23:03:49.133Z,40.28
2022-11-29T23:06:17.531Z,51.00
2022-11-29T23:08:45.598Z,44.35
2022-11-29T23:11:14.804Z,57.08
2022-11-29T23:13:42.685Z,46.17
2022-11-29T23:16:13.925Z,45.90
2022-11-29T23:18:42.297Z,52.63
2022-11-29T23:21:14.406Z,44.72
2022-11-29T23:23:41.337Z,51.15
2022-11-29T23:26:09.055Z,57.50
2022-11-29T23:28:36.126Z,49.80
2022-11-29T23:31:02.620Z,47.38
2022-11-29T23:33:29.270Z,50.65
2022-11-29T23:36:06.386Z,50.10
2022-11-29T23:38:33.432Z,48.85
2022-11-29T23:40:59.988Z,42.70
2022-11-29T23:43:34.713Z,51.92
2022-11-29T23:46:09.780Z,43.78
2022-11-29T23:48:36.394Z,43.92
2022-11-29T23:51:02.922Z,44.58
2022-11-29T23:53:29.563Z,44.03
2022-11-29T23:56:00.504Z,43.28
2022-11-29T23:58:28.137Z,49.97
